createdAt,value
2018-04-11T00:02:19.764Z,98934.00
2018-04-11T00:04:46.004Z,98934.00
2018-04-11T00:07:12.295Z,98933.44
2018-04-11T00:09:38.580Z,98937.62
2018-04-11T00:12:05.602Z,98937.36
2018-04-11T00:14:31.926Z,98939.47
2018-04-11T00:16:58.192Z,98932.88
2018-04-11T00:19:25.250Z,98933.03
2018-04-11T00:21:51.531Z,98930.22
2018-04-11T00:24:17.830Z,98927.98
2018-04-11T00:26:44.128Z,98930.62
2018-04-11T00:29:11.178Z,98933.37
2018-04-11T00:31:38.214Z,98935.81
2018-04-11T00:34:05.215Z,98937.34
2018-04-11T00:36:31.479Z,98936.25
2018-04-11T00:38:57.807Z,98943.89
2018-04-11T00:41:24.357Z,98944.22
2018-04-11T00:43:51.343Z,98945.08
2018-04-11T00:46:17.637Z,98937.65
2018-04-11T00:48:44.706Z,98942.53
2018-04-11T00:51:11.013Z,98939.61
2018-04-11T00:53:38.038Z,98935.37
2018-04-11T00:56:04.377Z,98938.91
2018-04-11T00:58:31.413Z,98941.95
2018-04-11T01:00:57.738Z,98936.27
2018-04-11T01:03:24.042Z,98932.89
2018-04-11T01:05:50.366Z,98937.88
2018-04-11T01:08:16.631Z,98937.02
2018-04-11T01:10:42.933Z,98938.19
2018-04-11T01:13:09.263Z,98934.87
2018-04-11T01:15:35.521Z,98934.92
2018-04-11T01:18:01.798Z,98934.76
2018-04-11T01:20:28.065Z,98929.59
2018-04-11T01:22:54.326Z,98928.66
2018-04-11T01:25:20.632Z,98929.19
2018-04-11T01:27:46.882Z,98928.64
2018-04-11T01:30:13.214Z,98923.95
2018-04-11T01:32:39.470Z,98931.00
2018-04-11T01:35:06.482Z,98932.40
2018-04-11T01:37:32.774Z,98926.66
2018-04-11T01:39:59.053Z,98924.59
2018-04-11T01:42:25.780Z,98929.56
2018-04-11T01:44:52.078Z,98928.52
2018-04-11T01:47:18.330Z,98928.31
2018-04-11T01:49:44.659Z,98929.39
2018-04-11T01:52:11.650Z,98928.26
2018-04-11T01:54:38.675Z,98936.44
2018-04-11T01:57:04.967Z,98938.33
2018-04-11T01:59:31.234Z,98942.70
2018-04-11T02:01:57.620Z,98941.41
2018-04-11T02:04:23.893Z,98939.33
2018-04-11T02:06:51.123Z,98931.78
2018-04-11T02:09:17.389Z,98934.89
2018-04-11T02:11:43.709Z,98928.52
2018-04-11T02:14:10.012Z,98928.52
2018-04-11T02:16:36.301Z,98933.84
2018-04-11T02:19:03.365Z,98934.05
2018-04-11T02:21:29.666Z,98934.27
2018-04-11T02:23:55.947Z,98939.23
2018-04-11T02:26:22.241Z,98937.06
2018-04-11T02:28:48.548Z,98940.91
2018-04-11T02:31:14.841Z,98941.26
2018-04-11T02:33:41.104Z,98947.39
2018-04-11T02:36:07.438Z,98942.73
2018-04-11T02:38:33.733Z,98947.84
2018-04-11T02:41:00.014Z,98948.70
2018-04-11T02:43:27.027Z,98951.58
2018-04-11T02:45:53.282Z,98954.98
2018-04-11T02:48:20.314Z,98951.25
2018-04-11T02:50:46.611Z,98958.73
2018-04-11T02:53:12.877Z,98958.97
2018-04-11T02:55:39.187Z,98959.94
2018-04-11T03:00:32.344Z,98967.37
2018-04-11T03:02:58.586Z,98970.66
2018-04-11T03:05:24.870Z,98970.03
2018-04-11T03:07:51.954Z,98966.33
2018-04-11T03:10:18.295Z,98965.70
2018-04-11T03:12:44.589Z,98959.34
2018-04-11T03:15:10.914Z,98945.17
2018-04-11T03:17:37.995Z,98954.81
2018-04-11T03:20:04.262Z,98957.83
2018-04-11T03:22:30.618Z,98956.20
2018-04-11T03:24:56.883Z,98959.52
2018-04-11T03:27:23.145Z,98955.60
2018-04-11T03:29:49.438Z,98948.33
2018-04-11T03:32:15.750Z,98944.81
2018-04-11T03:34:42.114Z,98944.19
2018-04-11T03:37:08.355Z,98944.67
2018-04-11T03:39:34.658Z,98935.10
2018-04-11T03:42:00.900Z,98941.08
2018-04-11T03:44:27.143Z,98940.58
2018-04-11T03:46:54.374Z,98940.00
2018-04-11T03:49:20.746Z,98936.09
2018-04-11T03:51:47.042Z,98937.69
2018-04-11T03:54:13.374Z,98944.29
2018-04-11T03:56:39.692Z,98952.00
2018-04-11T03:59:06.002Z,98950.75
2018-04-11T04:01:32.271Z,98946.80
2018-04-11T04:03:58.611Z,98951.05
2018-04-11T04:06:24.919Z,98948.40
2018-04-11T04:08:51.184Z,98949.44
2018-04-11T04:11:17.507Z,98957.59
2018-04-11T04:14:02.583Z,98955.11
2018-04-11T04:16:47.509Z,98962.44
2018-04-11T04:19:32.510Z,98963.23
2018-04-11T04:21:58.802Z,98963.75
2018-04-11T04:24:25.061Z,98973.79
2018-04-11T04:26:51.325Z,98980.09
2018-04-11T04:29:18.679Z,98980.18
2018-04-11T04:31:44.950Z,98982.29
2018-04-11T04:34:11.234Z,98983.02
2018-04-11T04:36:39.048Z,98986.23
2018-04-11T04:39:05.328Z,98984.19
2018-04-11T04:41:31.902Z,98983.48
2018-04-11T04:43:58.938Z,98988.40
2018-04-11T04:46:25.970Z,98990.45
2018-04-11T04:48:52.255Z,98994.14
2018-04-11T04:51:18.557Z,98985.35
2018-04-11T04:53:45.603Z,98989.89
2018-04-11T04:56:11.897Z,98990.98
2018-04-11T04:58:38.163Z,99001.41
2018-04-11T05:01:05.221Z,98999.23
2018-04-11T05:03:31.503Z,99003.50
2018-04-11T05:05:57.852Z,99010.73
2018-04-11T05:08:30.954Z,99009.23
2018-04-11T05:10:58.012Z,98999.52
2018-04-11T05:13:25.909Z,99006.64
2018-04-11T05:15:52.243Z,99005.02
2018-04-11T05:18:19.327Z,99009.36
2018-04-11T05:20:45.615Z,99008.67
2018-04-11T05:23:11.937Z,99014.48
2018-04-11T05:25:38.248Z,99016.57
2018-04-11T05:28:05.322Z,99018.58
2018-04-11T05:30:31.586Z,99018.65
2018-04-11T05:32:57.929Z,99021.41
2018-04-11T05:35:24.287Z,99013.45
2018-04-11T05:37:51.337Z,99011.44
2018-04-11T05:40:18.395Z,99015.10
2018-04-11T05:42:44.647Z,99017.59
2018-04-11T05:45:10.901Z,99019.95
2018-04-11T05:47:37.191Z,99026.20
2018-04-11T05:50:04.461Z,99023.25
2018-04-11T05:52:30.755Z,99024.51
2018-04-11T05:54:57.772Z,99027.48
2018-04-11T05:57:24.058Z,99017.30
2018-04-11T05:59:50.326Z,99021.22
2018-04-11T06:02:16.622Z,99026.95
2018-04-11T06:04:42.906Z,99035.85
2018-04-11T06:07:09.170Z,99036.86
2018-04-11T06:09:35.497Z,99037.20
2018-04-11T06:12:01.834Z,99037.11
2018-04-11T06:14:28.165Z,99036.34
2018-04-11T06:16:54.444Z,99038.36
2018-04-11T06:19:20.726Z,99041.52
2018-04-11T06:21:47.035Z,99045.45
2018-04-11T06:24:14.226Z,99050.69
2018-04-11T06:26:40.530Z,99053.53
2018-04-11T06:29:06.812Z,99053.27
2018-04-11T06:31:33.066Z,99056.44
2018-04-11T06:34:00.066Z,99064.34
2018-04-11T06:36:26.341Z,99051.39
2018-04-11T06:38:53.409Z,99053.38
2018-04-11T06:41:20.424Z,99046.68
2018-04-11T06:43:46.726Z,99047.98
2018-04-11T06:46:13.047Z,99056.78
2018-04-11T06:48:39.349Z,99050.96
2018-04-11T06:51:06.382Z,99043.30
2018-04-11T06:53:33.421Z,99042.87
2018-04-11T06:55:59.711Z,99047.98
2018-04-11T06:58:26.030Z,99054.80
2018-04-11T07:00:52.279Z,99054.76
2018-04-11T07:03:25.605Z,99054.66
2018-04-11T07:05:52.603Z,99057.66
2018-04-11T07:08:18.933Z,99049.86
2018-04-11T07:10:45.217Z,99047.90
2018-04-11T07:13:11.486Z,99050.03
2018-04-11T07:15:37.762Z,99056.73
2018-04-11T07:18:04.028Z,99061.36
2018-04-11T07:20:30.342Z,99060.61
2018-04-11T07:22:57.343Z,99051.81
2018-04-11T07:25:23.631Z,99061.29
2018-04-11T07:27:50.633Z,99066.83
2018-04-11T07:30:17.801Z,99070.31
2018-04-11T07:32:44.062Z,99065.77
2018-04-11T07:35:11.076Z,99068.98
2018-04-11T07:37:37.339Z,99071.53
2018-04-11T07:40:03.664Z,99074.11
2018-04-11T07:42:31.006Z,99059.42
2018-04-11T07:44:57.352Z,99063.98
2018-04-11T07:47:24.417Z,99070.46
2018-04-11T07:49:50.792Z,99071.16
2018-04-11T07:52:17.074Z,99073.44
2018-04-11T07:54:43.381Z,99075.74
2018-04-11T07:57:10.407Z,99076.63
2018-04-11T07:59:36.742Z,99079.19
2018-04-11T08:02:03.068Z,99075.31
2018-04-11T08:04:29.337Z,99070.99
2018-04-11T08:06:56.385Z,99071.66
2018-04-11T08:09:23.408Z,99079.13
2018-04-11T08:11:50.441Z,99076.72
2018-04-11T08:14:16.716Z,99067.43
2018-04-11T08:16:43.015Z,99073.41
2018-04-11T08:19:10.790Z,99073.38
2018-04-11T08:21:37.830Z,99070.41
2018-04-11T08:24:04.078Z,99066.02
2018-04-11T08:26:31.137Z,99067.70
2018-04-11T08:28:57.408Z,99066.05
2018-04-11T08:31:23.722Z,99066.52
2018-04-11T08:33:49.998Z,99074.65
2018-04-11T08:36:16.311Z,99065.65
2018-04-11T08:38:42.561Z,99062.73
2018-04-11T08:41:08.852Z,99062.34
2018-04-11T08:43:35.143Z,99063.66
2018-04-11T08:46:02.146Z,99061.49
2018-04-11T08:48:28.431Z,99062.11
2018-04-11T08:51:01.787Z,99060.27
2018-04-11T08:53:28.071Z,99060.42
2018-04-11T08:55:54.389Z,99071.65
2018-04-11T08:58:20.670Z,99068.88
2018-04-11T09:00:46.961Z,99069.86
2018-04-11T09:03:13.252Z,99071.06
2018-04-11T09:05:40.283Z,99076.05
2018-04-11T09:08:06.593Z,99070.38
2018-04-11T09:10:32.884Z,99078.89
2018-04-11T09:12:59.143Z,99083.06
2018-04-11T09:15:25.392Z,99071.33
2018-04-11T09:17:51.677Z,99083.72
2018-04-11T09:20:17.945Z,99075.14
2018-04-11T09:22:44.238Z,99082.98
2018-04-11T09:25:10.538Z,99079.20
2018-04-11T09:27:36.870Z,99078.77
2018-04-11T09:30:03.894Z,99084.17
2018-04-11T09:32:30.150Z,99079.86
2018-04-11T09:34:57.198Z,99079.77
2018-04-11T09:37:24.215Z,99083.97
2018-04-11T09:39:50.502Z,99085.62
2018-04-11T09:42:16.802Z,99083.37
2018-04-11T09:44:43.846Z,99090.49
2018-04-11T09:47:10.208Z,99081.19
2018-04-11T09:49:36.543Z,99080.84
2018-04-11T09:52:02.906Z,99074.52
2018-04-11T09:54:29.163Z,99075.55
2018-04-11T09:56:55.441Z,99081.22
2018-04-11T09:59:21.725Z,99079.11
2018-04-11T10:01:49.981Z,99076.63
2018-04-11T10:04:16.266Z,99085.79
2018-04-11T10:06:42.558Z,99079.37
2018-04-11T10:09:08.821Z,99075.92
2018-04-11T10:11:35.093Z,99077.64
2018-04-11T10:14:01.348Z,99080.64
2018-04-11T10:16:27.642Z,99077.36
2018-04-11T10:18:53.918Z,99079.64
2018-04-11T10:21:20.220Z,99074.73
2018-04-11T10:23:47.264Z,99066.38
2018-04-11T10:26:13.580Z,99068.27
2018-04-11T10:28:39.909Z,99068.16
2018-04-11T10:31:06.268Z,99073.00
2018-04-11T10:33:32.576Z,99071.37
2018-04-11T10:35:58.877Z,99066.97
2018-04-11T10:38:25.174Z,99068.34
2018-04-11T10:40:51.451Z,99069.77
2018-04-11T10:43:17.735Z,99057.73
2018-04-11T10:45:44.043Z,99056.50
2018-04-11T10:48:10.323Z,99060.33
2018-04-11T10:50:37.370Z,99066.16
2018-04-11T10:53:03.673Z,99054.28
2018-04-11T10:55:29.950Z,99059.66
2018-04-11T10:57:56.225Z,99050.19
2018-04-11T11:00:22.506Z,99059.81
2018-04-11T11:02:48.818Z,99046.94
2018-04-11T11:05:15.816Z,99046.73
2018-04-11T11:07:42.106Z,99046.09
2018-04-11T11:10:08.419Z,99044.05
2018-04-11T11:12:35.436Z,99045.41
2018-04-11T11:15:01.738Z,99040.20
2018-04-11T11:17:28.027Z,99041.16
2018-04-11T11:20:01.065Z,99037.41
2018-04-11T11:22:27.344Z,99029.66
2018-04-11T11:24:54.348Z,99031.76
2018-04-11T11:27:20.636Z,99032.83
2018-04-11T11:29:47.650Z,99025.91
2018-04-11T11:32:13.979Z,99019.65
2018-04-11T11:34:40.379Z,99026.84
2018-04-11T11:37:06.683Z,99015.22
2018-04-11T11:39:32.960Z,99025.69
2018-04-11T11:42:00.085Z,99018.17
2018-04-11T11:44:26.375Z,99016.50
2018-04-11T11:46:53.427Z,99013.17
2018-04-11T11:49:20.494Z,99021.11
2018-04-11T11:51:46.735Z,99011.28
2018-04-11T11:54:13.007Z,99012.84
2018-04-11T11:56:40.273Z,99009.53
2018-04-11T11:59:07.332Z,99016.66
2018-04-11T12:01:34.370Z,99015.63
2018-04-11T12:04:00.653Z,99013.43
2018-04-11T12:06:26.940Z,99017.13
2018-04-11T12:08:53.972Z,99025.08
2018-04-11T12:11:20.310Z,99020.34
2018-04-11T12:13:46.586Z,99023.13
2018-04-11T12:16:12.874Z,99017.31
2018-04-11T12:18:39.911Z,99004.30
2018-04-11T12:21:06.206Z,99003.08
2018-04-11T12:23:32.493Z,98998.97
2018-04-11T12:25:59.721Z,98992.40
2018-04-11T12:28:26.038Z,98984.69
2018-04-11T12:30:52.289Z,98977.74
2018-04-11T12:33:18.639Z,98991.52
2018-04-11T12:35:45.664Z,98987.14
2018-04-11T12:38:11.991Z,98980.06
2018-04-11T12:40:38.280Z,98971.50
2018-04-11T12:43:04.609Z,98974.63
2018-04-11T12:45:30.871Z,98977.86
2018-04-11T12:47:57.135Z,98976.34
2018-04-11T12:50:24.162Z,98972.45
2018-04-11T12:52:50.466Z,98983.80
2018-04-11T12:55:16.752Z,98985.33
2018-04-11T12:57:43.760Z,98988.28
2018-04-11T13:00:10.070Z,98980.88
2018-04-11T13:02:36.290Z,98975.19
2018-04-11T13:05:02.568Z,98967.95
2018-04-11T13:07:29.623Z,98965.49
2018-04-11T13:09:56.651Z,98966.78
2018-04-11T13:12:22.989Z,98970.19
2018-04-11T13:14:49.321Z,98972.64
2018-04-11T13:17:15.579Z,98970.39
2018-04-11T13:19:42.599Z,98968.09
2018-04-11T13:22:08.897Z,98959.31
2018-04-11T13:24:35.215Z,98953.88
2018-04-11T13:27:01.579Z,98947.63
2018-04-11T13:29:27.867Z,98943.75
2018-04-11T13:31:54.161Z,98938.98
2018-04-11T13:34:21.344Z,98930.53
2018-04-11T13:36:47.651Z,98941.03
2018-04-11T13:39:14.697Z,98930.78
2018-04-11T13:41:41.781Z,98928.69
2018-04-11T13:44:08.044Z,98917.58
2018-04-11T13:46:34.380Z,98923.81
2018-04-11T13:49:01.593Z,98926.30
2018-04-11T13:51:27.897Z,98934.06
2018-04-11T13:53:54.976Z,98942.55
2018-04-11T13:56:21.318Z,98949.51
2018-04-11T13:58:47.563Z,98951.20
2018-04-11T14:01:13.875Z,98946.81
2018-04-11T14:03:40.138Z,98946.09
2018-04-11T14:06:06.418Z,98946.75
2018-04-11T14:08:32.707Z,98946.70
2018-04-11T14:10:59.014Z,98954.45
2018-04-11T14:13:25.300Z,98943.80
2018-04-11T14:15:51.570Z,98946.19
2018-04-11T14:18:17.862Z,98946.86
2018-04-11T14:20:44.166Z,98939.28
2018-04-11T14:23:11.152Z,98933.62
2018-04-11T14:25:37.470Z,98948.24
2018-04-11T14:28:03.871Z,98940.45
2018-04-11T14:30:30.892Z,98945.74
2018-04-11T14:32:57.256Z,98938.23
2018-04-11T14:35:24.327Z,98933.42
2018-04-11T14:37:50.609Z,98919.16
2018-04-11T14:40:16.918Z,98911.73
2018-04-11T14:42:43.241Z,98915.42
2018-04-11T14:45:09.566Z,98905.55
2018-04-11T14:47:35.886Z,98907.62
2018-04-11T14:50:02.159Z,98905.75
2018-04-11T14:52:28.625Z,98912.38
2018-04-11T14:54:55.703Z,98913.91
2018-04-11T14:57:21.984Z,98912.34
2018-04-11T14:59:48.252Z,98909.09
2018-04-11T15:02:14.560Z,98913.92
2018-04-11T15:04:41.643Z,98912.88
2018-04-11T15:07:07.918Z,98920.18
2018-04-11T15:09:34.219Z,98923.53
2018-04-11T15:12:00.563Z,98918.23
2018-04-11T15:14:26.832Z,98919.91
2018-04-11T15:16:53.895Z,98915.49
2018-04-11T15:19:20.921Z,98920.41
2018-04-11T15:21:47.213Z,98924.38
2018-04-11T15:24:13.514Z,98925.11
2018-04-11T15:26:39.853Z,98922.55
2018-04-11T15:29:06.155Z,98934.10
2018-04-11T15:31:33.181Z,98929.38
2018-04-11T15:33:59.436Z,98929.55
2018-04-11T15:36:26.434Z,98932.40
2018-04-11T15:38:52.719Z,98925.78
2018-04-11T15:41:19.125Z,98913.52
2018-04-11T15:43:45.379Z,98918.58
2018-04-11T15:46:31.171Z,98909.61
2018-04-11T15:48:58.241Z,98916.70
2018-04-11T15:51:24.524Z,98917.44
2018-04-11T15:53:50.789Z,98908.78
2018-04-11T15:56:17.120Z,98909.93
2018-04-11T15:58:44.082Z,98909.48
2018-04-11T16:01:10.402Z,98911.63
2018-04-11T16:03:36.690Z,98904.14
2018-04-11T16:06:04.033Z,98908.53
2018-04-11T16:08:30.397Z,98906.61
2018-04-11T16:10:57.529Z,98898.53
2018-04-11T16:13:23.876Z,98902.52
2018-04-11T16:15:50.962Z,98895.61
2018-04-11T16:18:17.343Z,98896.13
2018-04-11T16:20:43.838Z,98895.47
2018-04-11T16:23:10.126Z,98892.63
2018-04-11T16:25:37.225Z,98897.72
2018-04-11T16:28:03.519Z,98897.02
2018-04-11T16:30:30.014Z,98893.82
2018-04-11T16:32:56.337Z,98900.53
2018-04-11T16:35:22.700Z,98894.61
2018-04-11T16:37:49.755Z,98897.86
2018-04-11T16:40:16.833Z,98899.19
2018-04-11T16:42:43.138Z,98898.22
2018-04-11T16:45:10.221Z,98905.44
2018-04-11T16:47:36.560Z,98901.95
2018-04-11T16:50:02.917Z,98899.28
2018-04-11T16:52:29.306Z,98906.00
2018-04-11T16:54:55.675Z,98897.27
2018-04-11T16:57:22.027Z,98895.72
2018-04-11T16:59:48.383Z,98909.63
2018-04-11T17:02:14.791Z,98909.56
2018-04-11T17:04:41.221Z,98908.04
2018-04-11T17:07:08.416Z,98908.12
2018-04-11T17:09:34.836Z,98906.00
2018-04-11T17:12:01.218Z,98905.23
2018-04-11T17:14:27.905Z,98899.70
2018-04-11T17:16:54.232Z,98901.62
2018-04-11T17:19:20.942Z,98904.57
2018-04-11T17:22:05.946Z,98904.31
2018-04-11T17:24:50.810Z,98910.20
2018-04-11T17:27:35.788Z,98907.75
2018-04-11T17:30:21.023Z,98916.94
2018-04-11T17:32:47.559Z,98916.30
2018-04-11T17:35:13.969Z,98913.51
2018-04-11T17:37:40.338Z,98925.14
2018-04-11T17:40:07.506Z,98915.45
2018-04-11T17:42:33.830Z,98916.18
2018-04-11T17:45:00.904Z,98918.21
2018-04-11T17:47:27.218Z,98918.54
2018-04-11T17:49:53.486Z,98917.14
2018-04-11T17:52:19.775Z,98917.44
2018-04-11T17:54:46.056Z,98921.69
2018-04-11T17:57:12.604Z,98922.36
2018-04-11T17:59:38.906Z,98927.03
2018-04-11T18:02:05.250Z,98928.06
2018-04-11T18:04:31.519Z,98937.73
2018-04-11T18:06:58.545Z,98939.64
2018-04-11T18:09:24.998Z,98943.16
2018-04-11T18:11:51.290Z,98950.66
2018-04-11T18:14:17.591Z,98954.92
2018-04-11T18:16:43.899Z,98953.37
2018-04-11T18:19:10.994Z,98955.77
2018-04-11T18:21:37.428Z,98954.48
2018-04-11T18:24:03.921Z,98953.42
2018-04-11T18:26:30.915Z,98955.89
2018-04-11T18:28:57.990Z,98958.00
2018-04-11T18:31:24.360Z,98964.27
2018-04-11T18:33:50.715Z,98966.58
2018-04-11T18:36:17.032Z,98971.33
2018-04-11T18:38:43.360Z,98973.57
2018-04-11T18:41:09.681Z,98979.78
2018-04-11T18:43:36.003Z,98980.11
2018-04-11T18:46:03.131Z,98977.98
2018-04-11T18:48:30.109Z,98988.94
2018-04-11T18:50:56.503Z,98991.61
2018-04-11T18:53:22.929Z,98989.56
2018-04-11T18:55:49.251Z,98992.12
2018-04-11T18:58:15.610Z,98987.33
2018-04-11T19:00:42.692Z,98990.11
2018-04-11T19:03:09.021Z,98989.05
2018-04-11T19:05:35.386Z,98994.73
2018-04-11T19:08:01.702Z,98996.30
2018-04-11T19:10:27.975Z,98994.89
2018-04-11T19:12:54.334Z,98974.00
2018-04-11T19:15:21.426Z,98997.44
2018-04-11T19:17:47.764Z,98987.72
2018-04-11T19:20:14.077Z,98989.63
2018-04-11T19:22:40.544Z,98989.72
2018-04-11T19:25:07.057Z,98993.69
2018-04-11T19:27:33.371Z,98987.27
2018-04-11T19:29:59.749Z,98983.93
2018-04-11T19:32:26.163Z,98989.45
2018-04-11T19:34:52.502Z,98982.81
2018-04-11T19:37:18.850Z,98981.72
2018-04-11T19:39:45.260Z,98985.17
2018-04-11T19:42:11.590Z,98982.61
2018-04-11T19:44:37.954Z,98982.42
2018-04-11T19:47:05.043Z,98986.78
2018-04-11T19:49:31.380Z,98986.58
2018-04-11T19:51:57.716Z,98978.74
2018-04-11T19:54:24.020Z,98985.74
2018-04-11T19:56:50.384Z,98985.13
2018-04-11T19:59:16.737Z,98984.69
2018-04-11T20:01:43.092Z,98976.42
2018-04-11T20:04:10.130Z,98974.39
2018-04-11T20:06:37.306Z,98967.17
2018-04-11T20:09:04.386Z,98977.00
2018-04-11T20:11:30.735Z,98974.45
2018-04-11T20:13:57.890Z,98970.85
2018-04-11T20:16:24.252Z,98970.31
2018-04-11T20:18:50.542Z,98972.83
2018-04-11T20:21:16.859Z,98970.88
2018-04-11T20:23:43.145Z,98967.20
2018-04-11T20:26:09.522Z,98963.87
2018-04-11T20:28:35.801Z,98962.11
2018-04-11T20:31:02.170Z,98967.27
2018-04-11T20:33:28.505Z,98961.02
2018-04-11T20:35:54.878Z,98965.89
2018-04-11T20:38:21.261Z,98958.98
2018-04-11T20:40:47.904Z,98957.44
2018-04-11T20:43:14.236Z,98953.41
2018-04-11T20:45:40.675Z,98955.75
2018-04-11T20:48:07.070Z,98950.97
2018-04-11T20:50:34.137Z,98949.07
2018-04-11T20:53:00.438Z,98945.34
2018-04-11T20:55:26.746Z,98943.23
2018-04-11T20:57:53.132Z,98944.55
2018-04-11T21:00:20.170Z,98948.04
2018-04-11T21:02:47.214Z,98953.09
2018-04-11T21:05:14.249Z,98951.55
2018-04-11T21:07:41.405Z,98949.60
2018-04-11T21:10:08.521Z,98947.66
2018-04-11T21:12:35.564Z,98949.53
2018-04-11T21:15:01.919Z,98939.65
2018-04-11T21:17:28.785Z,98941.08
2018-04-11T21:19:55.854Z,98941.91
2018-04-11T21:22:22.186Z,98948.03
2018-04-11T21:24:48.485Z,98945.95
2018-04-11T21:27:14.818Z,98944.77
2018-04-11T21:29:41.913Z,98951.63
2018-04-11T21:32:08.264Z,98948.42
2018-04-11T21:34:34.612Z,98948.24
2018-04-11T21:37:00.963Z,98946.44
2018-04-11T21:39:27.975Z,98943.95
2018-04-11T21:41:55.226Z,98938.59
2018-04-11T21:44:21.613Z,98943.13
2018-04-11T21:46:48.617Z,98942.66
2018-04-11T21:49:14.925Z,98937.45
2018-04-11T21:51:41.168Z,98928.28
2018-04-11T21:54:07.474Z,98932.75
2018-04-11T21:56:33.771Z,98927.98
2018-04-11T21:59:00.788Z,98927.73
2018-04-11T22:01:27.055Z,98929.84
2018-04-11T22:03:54.079Z,98923.52
2018-04-11T22:06:20.394Z,98926.88
2018-04-11T22:08:46.697Z,98929.94
2018-04-11T22:11:13.008Z,98923.06
2018-04-11T22:13:39.282Z,98921.18
2018-04-11T22:16:05.638Z,98920.61
2018-04-11T22:18:31.963Z,98912.29
2018-04-11T22:20:58.247Z,98913.17
2018-04-11T22:23:24.526Z,98916.06
2018-04-11T22:25:50.787Z,98914.83
2018-04-11T22:28:17.068Z,98914.72
2018-04-11T22:30:43.367Z,98913.59
2018-04-11T22:33:09.683Z,98916.23
2018-04-11T22:35:36.951Z,98916.30
2018-04-11T22:38:03.201Z,98919.63
2018-04-11T22:40:29.465Z,98922.66
2018-04-11T22:42:55.748Z,98920.09
2018-04-11T22:45:22.079Z,98916.81
2018-04-11T22:47:48.359Z,98922.14
2018-04-11T22:50:14.632Z,98921.31
2018-04-11T22:52:40.956Z,98918.19
2018-04-11T22:55:07.268Z,98913.72
2018-04-11T22:57:34.300Z,98909.80
2018-04-11T23:00:00.742Z,98907.39
2018-04-11T23:02:27.797Z,98909.40
2018-04-11T23:04:54.826Z,98904.28
2018-04-11T23:07:21.125Z,98902.33
2018-04-11T23:09:47.398Z,98897.92
2018-04-11T23:12:14.406Z,98897.33
2018-04-11T23:14:40.682Z,98889.88
2018-04-11T23:17:07.741Z,98901.58
2018-04-11T23:19:34.045Z,98891.12
2018-04-11T23:22:00.401Z,98894.66
2018-04-11T23:24:26.739Z,98894.95
2018-04-11T23:26:53.140Z,98888.11
2018-04-11T23:29:19.367Z,98893.86
2018-04-11T23:31:45.662Z,98896.42
2018-04-11T23:34:11.933Z,98898.45
2018-04-11T23:36:38.222Z,98890.44
2018-04-11T23:39:04.518Z,98895.92
2018-04-11T23:41:30.843Z,98899.17
2018-04-11T23:43:57.121Z,98895.39
2018-04-11T23:46:23.379Z,98890.27
2018-04-11T23:48:49.645Z,98889.65
2018-04-11T23:51:15.952Z,98884.53
2018-04-11T23:53:42.985Z,98885.85
2018-04-11T23:56:09.245Z,98887.92
2018-04-11T23:58:35.841Z,98884.70
